Time;durP1;ratioP1;P1;durP2;ratioP2;P2;SDS_P1;SDS_P2;PMS_P1;PMS_P2;Temp;Humidity;BMP_temperature;BMP_pressure;BME280_temperature;BME280_humidity;BME280_pressure;Samples;Min_cycle;Max_cycle;Signal;HPM_P1;HPM_P2
2021/03/27 00:00:15;;;;;;;23.27;12.27;;;;;;;1.85;60.49;101075.59;5057714;28;20273;-21
2021/03/27 00:02:44;;;;;;;20.58;11.43;;;;;;;2.22;59.52;101082.78;5073799;28;20048;-23
2021/03/27 00:05:18;;;;;;;;;;;;;;;2.33;58.64;101080.03;5074561;28;20055;-22
2021/03/27 00:08:11;;;;;;;22.70;12.40;;;;;;;2.28;59.17;101095.41;5073857;28;19916;-22
2021/03/27 00:10:44;;;;;;;20.40;10.30;;;;;;;2.15;59.62;101079.91;5092322;28;20028;-22
2021/03/27 00:13:48;;;;;;;22.48;11.27;;;;;;;2.29;58.43;101093.59;5074476;28;20034;-22
2021/03/27 00:16:25;;;;;;;27.02;14.07;;;;;;;2.13;59.05;101083.63;5042789;28;20098;-22
2021/03/27 00:18:50;;;;;;;20.30;10.60;;;;;;;2.26;57.91;101057.84;5073775;28;20028;-22
2021/03/27 00:21:22;;;;;;;17.02;10.05;;;;;;;2.03;60.21;101082.81;5091647;28;20032;-22
2021/03/27 00:23:55;;;;;;;16.38;10.90;;;;;;;1.96;60.06;101067.56;5057457;28;20107;-22
2021/03/27 00:26:33;;;;;;;19.23;10.80;;;;;;;2.20;58.68;101037.38;5074575;28;20668;-22
2021/03/27 00:29:06;;;;;;;21.50;11.13;;;;;;;2.29;59.55;101072.53;5057147;28;20052;-23
2021/03/27 00:31:40;;;;;;;28.40;14.50;;;;;;;2.58;58.35;101081.22;5057161;28;20046;-23
2021/03/27 00:34:07;;;;;;;53.83;22.33;;;;;;;2.62;58.49;101079.16;5073520;28;20028;-22
2021/03/27 00:36:40;;;;;;;61.63;26.70;;;;;;;2.25;60.04;101056.22;5040342;28;20028;-22
2021/03/27 00:39:10;;;;;;;96.47;36.65;;;;;;;2.55;59.19;101073.59;5057561;28;20035;-22
2021/03/27 00:42:03;;;;;;;65.80;27.23;;;;;;;2.87;58.94;101087.41;5057291;28;20032;-22
2021/03/27 00:44:32;;;;;;;55.40;24.70;;;;;;;2.45;58.53;101045.63;5066243;28;20051;-22
2021/03/27 00:46:59;;;;;;;55.17;23.80;;;;;;;2.79;58.29;101070.50;5056730;28;20024;-22
2021/03/27 00:49:26;;;;;;;40.15;21.30;;;;;;;2.48;58.82;101061.16;5056768;28;20043;-22
2021/03/27 00:51:56;;;;;;;36.92;19.80;;;;;;;2.66;58.63;101075.25;5056622;28;20507;-23
2021/03/27 00:54:40;;;;;;;33.47;17.80;;;;;;;2.41;57.67;101039.81;5056565;28;20044;-22
2021/03/27 00:57:11;;;;;;;26.23;14.98;;;;;;;2.14;61.03;101074.75;5057011;28;20032;-22
2021/03/27 00:59:38;;;;;;;28.00;15.40;;;;;;;1.97;60.73;101058.69;5073354;28;20089;-22
2021/03/27 01:02:07;;;;;;;22.73;12.23;;;;;;;2.23;59.79;101079.22;5073130;28;20024;-23
2021/03/27 01:04:33;;;;;;;22.30;12.65;;;;;;;2.13;58.86;101054.69;5069351;28;20053;-22
2021/03/27 01:07:04;;;;;;;21.30;13.00;;;;;;;2.39;57.91;101068.94;5052911;28;20029;-21
2021/03/27 01:09:40;;;;;;;24.73;12.77;;;;;;;1.82;59.74;101049.56;5053007;28;20070;-23
2021/03/27 01:12:19;;;;;;;20.38;12.57;;;;;;;1.52;60.66;101072.34;5054228;28;20016;-23
2021/03/27 01:14:50;;;;;;;19.73;11.70;;;;;;;1.00;62.60;101050.59;5069365;28;20078;-22
2021/03/27 01:17:18;;;;;;;18.48;10.55;;;;;;;1.16;61.71;101064.06;5069477;28;20033;-22
2021/03/27 01:19:49;;;;;;;18.27;10.15;;;;;;;1.34;61.12;101066.09;5070324;28;20035;-22
2021/03/27 01:22:16;;;;;;;19.15;10.38;;;;;;;1.89;58.92;101076.97;5069186;28;20036;-22
2021/03/27 01:24:41;;;;;;;18.92;10.52;;;;;;;2.24;57.86;101062.44;5052478;28;20036;-23
2021/03/27 01:27:25;;;;;;;17.40;10.48;;;;;;;1.97;59.51;101068.41;5068980;28;20016;-22
2021/03/27 01:30:01;;;;;;;21.38;10.95;;;;;;;1.90;60.18;101072.53;5053330;28;20514;-22
2021/03/27 01:32:34;;;;;;;19.60;10.35;;;;;;;1.79;59.91;101073.50;5070150;28;20028;-23
2021/03/27 01:35:08;;;;;;;21.27;10.43;;;;;;;1.99;58.77;101064.66;5068880;28;20037;-22
2021/03/27 01:37:54;;;;;;;18.45;10.55;;;;;;;2.04;58.31;101073.94;5069898;28;20036;-23
2021/03/27 01:40:29;;;;;;;18.70;11.50;;;;;;;1.64;60.69;101088.03;5053584;28;20105;-22
2021/03/27 01:43:18;;;;;;;24.45;14.13;;;;;;;1.88;59.21;101085.84;5069898;28;20494;-22
2021/03/27 01:46:00;;;;;;;22.40;12.93;;;;;;;2.06;58.37;101087.78;5068643;28;20037;-22
2021/03/27 01:48:31;;;;;;;22.25;12.88;;;;;;;2.02;58.42;101074.06;5068846;28;20373;-23
2021/03/27 01:51:01;;;;;;;21.63;12.30;;;;;;;1.75;58.95;101070.31;5068677;28;20052;-22
2021/03/27 01:53:41;;;;;;;22.10;12.93;;;;;;;1.37;60.13;101081.59;5052008;28;20023;-23
2021/03/27 01:56:41;;;;;;;21.77;12.75;;;;;;;1.01;62.45;101081.19;5067963;28;20043;-22
2021/03/27 01:59:47;;;;;;;24.20;12.07;;;;;;;1.24;61.09;101096.75;5068644;28;20116;-22
2021/03/27 02:02:20;;;;;;;20.60;10.45;;;;;;;1.36;60.72;101086.00;5007186;28;20049;-22
2021/03/27 02:04:50;;;;;;;21.38;11.23;;;;;;;1.00;61.76;101090.88;5058521;28;20044;-22
2021/03/27 02:07:34;;;;;;;18.48;11.02;;;;;;;0.80;62.27;101097.81;5068195;28;20082;-22
2021/03/27 02:10:01;;;;;;;19.02;10.85;;;;;;;0.73;63.59;101088.78;5069544;28;20071;-23
2021/03/27 02:13:04;;;;;;;21.95;9.65;;;;;;;0.74;63.66;101095.69;5068254;28;20135;-22
2021/03/27 02:15:40;;;;;;;32.65;13.48;;;;;;;0.55;62.81;101069.31;5069488;28;20028;-22
2021/03/27 02:18:31;;;;;;;27.88;13.75;;;;;;;0.63;62.86;101077.38;5052217;28;20036;-23
2021/03/27 02:21:20;;;;;;;20.98;11.73;;;;;;;1.26;60.24;101100.91;5053410;28;20086;-23
2021/03/27 02:23:51;;;;;;;23.35;11.65;;;;;;;1.31;60.66;101108.38;5069398;28;20059;-23
2021/03/27 02:26:40;;;;;;;22.17;12.48;;;;;;;1.43;60.62;101106.50;5069197;28;20037;-22
2021/03/27 02:29:28;;;;;;;24.88;12.52;;;;;;;1.26;60.55;101111.41;5069204;28;20483;-22
2021/03/27 02:32:02;;;;;;;31.65;12.63;;;;;;;1.39;60.45;101117.28;5069107;28;20026;-22
2021/03/27 02:34:34;;;;;;;22.33;11.20;;;;;;;1.06;61.73;101110.50;5051665;28;20029;-22
2021/03/27 02:37:23;;;;;;;23.27;12.52;;;;;;;1.17;61.16;101118.31;5067801;28;20024;-23
2021/03/27 02:40:22;;;;;;;21.00;12.52;;;;;;;0.85;61.83;101107.09;5057867;28;20044;-22
2021/03/27 02:42:53;;;;;;;22.70;12.50;;;;;;;1.20;61.13;101117.19;5063906;28;20115;-23
2021/03/27 02:46:08;;;;;;;22.05;11.52;;;;;;;0.74;61.56;101111.44;5068830;28;20039;-23
2021/03/27 02:48:58;;;;;;;18.50;10.30;;;;;;;0.70;62.94;101103.97;5045472;28;20043;-22
2021/03/27 02:51:26;;;;;;;18.20;10.32;;;;;;;0.37;64.35;101093.53;5052878;28;20029;-23
2021/03/27 02:53:58;;;;;;;;;;;;;;;0.56;62.81;101118.25;5051554;28;20024;-23
2021/03/27 02:56:26;;;;;;;17.70;9.70;;;;;;;0.64;62.54;101105.31;5067651;28;20368;-22
2021/03/27 02:58:57;;;;;;;20.95;9.68;;;;;;;0.17;63.53;101099.59;5067510;28;20059;-23
2021/03/27 03:01:36;;;;;;;15.43;9.35;;;;;;;0.47;63.88;101114.59;5068644;28;20036;-22
2021/03/27 03:04:27;;;;;;;20.25;11.43;;;;;;;0.73;63.01;101117.66;5067396;28;20053;-22
2021/03/27 03:07:07;;;;;;;23.75;12.52;;;;;;;0.62;63.39;101095.91;5067590;28;20112;-22
2021/03/27 03:10:15;;;;;;;20.95;12.07;;;;;;;0.98;62.40;101107.69;5074132;28;20032;-23
2021/03/27 03:12:50;;;;;;;25.38;14.30;;;;;;;0.89;62.71;101088.31;5036393;28;20133;-22
2021/03/27 03:15:21;;;;;;;27.15;13.95;;;;;;;0.93;62.42;101125.66;5073909;28;20091;-22
2021/03/27 03:17:53;;;;;;;27.88;14.00;;;;;;;0.49;64.67;101117.94;5074254;28;20036;-22
2021/03/27 03:20:28;;;;;;;29.15;16.30;;;;;;;0.37;64.58;101125.03;5074271;28;20033;-22
2021/03/27 03:23:07;;;;;;;36.03;18.08;;;;;;;0.45;64.50;101119.16;5075256;28;20040;-23
2021/03/27 03:25:33;;;;;;;33.45;19.17;;;;;;;0.61;63.90;101123.94;5073926;28;20839;-22
2021/03/27 03:28:17;;;;;;;29.10;16.92;;;;;;;0.13;64.60;101121.78;5057467;28;20029;-22
2021/03/27 03:30:55;;;;;;;28.20;14.18;;;;;;;-0.33;65.76;101131.53;5075317;28;20031;-22
2021/03/27 03:33:42;;;;;;;25.98;12.32;;;;;;;-0.16;65.09;101130.22;5075140;28;20465;-22
2021/03/27 03:36:13;;;;;;;25.92;13.82;;;;;;;0.21;64.13;101098.38;5075204;28;20028;-22
2021/03/27 03:39:07;;;;;;;28.70;14.98;;;;;;;-0.07;66.46;101121.59;5057681;28;20479;-23
2021/03/27 03:41:38;;;;;;;35.10;17.50;;;;;;;0.36;64.26;101125.13;5073622;28;20021;-22
2021/03/27 03:44:09;;;;;;;31.23;17.17;;;;;;;0.07;64.94;101112.63;5075052;28;20082;-22
2021/03/27 03:47:01;;;;;;;29.23;16.52;;;;;;;0.44;63.73;101135.84;5074974;28;20032;-21
2021/03/27 03:49:44;;;;;;;34.90;16.70;;;;;;;0.02;64.87;101090.34;5043404;28;20036;-22
2021/03/27 03:52:36;;;;;;;23.38;13.90;;;;;;;0.26;64.31;101138.16;5074272;28;20054;-23
2021/03/27 03:55:18;;;;;;;26.30;14.07;;;;;;;0.36;63.71;101139.09;5073697;28;20028;-22
2021/03/27 03:58:18;;;;;;;33.80;17.13;;;;;;;0.13;64.40;101132.28;5075230;28;20016;-22
2021/03/27 04:01:14;;;;;;;33.38;18.38;;;;;;;0.34;63.22;101138.38;5075077;28;20067;-22
2021/03/27 04:04:15;;;;;;;33.80;17.55;;;;;;;0.37;64.16;101134.69;5060246;28;20053;-22
2021/03/27 04:06:41;;;;;;;35.42;17.55;;;;;;;-0.08;64.80;101140.06;5022411;28;20183;-22
2021/03/27 04:09:26;;;;;;;33.70;17.67;;;;;;;0.03;64.68;101147.09;5057137;28;20111;-22
2021/03/27 04:12:02;;;;;;;34.80;19.63;;;;;;;0.71;62.70;101148.44;5075399;28;20484;-22
2021/03/27 04:15:05;;;;;;;35.13;19.27;;;;;;;1.00;62.13;101150.41;5073644;28;20028;-22
2021/03/27 04:17:49;;;;;;;37.42;20.55;;;;;;;0.79;62.54;101143.38;5074541;28;20029;-22
2021/03/27 04:20:39;;;;;;;31.05;17.83;;;;;;;0.65;63.10;101163.88;5070450;28;20029;-22
2021/03/27 04:23:24;;;;;;;39.03;20.42;;;;;;;0.48;64.18;101157.41;5070336;28;20036;-22
2021/03/27 04:26:08;;;;;;;41.13;20.58;;;;;;;0.72;62.78;101167.69;5070542;28;20407;-22
2021/03/27 04:28:39;;;;;;;51.20;25.90;;;;;;;0.67;62.50;101177.72;5072977;28;20039;-22
2021/03/27 04:31:26;;;;;;;112.35;45.25;;;;;;;0.77;62.00;101152.38;5086855;28;20403;-22
2021/03/27 04:34:01;;;;;;;44.05;23.23;;;;;;;1.05;62.55;101187.66;5076072;28;20051;-22
2021/03/27 04:36:31;;;;;;;76.88;35.50;;;;;;;1.05;61.48;101161.38;5091204;28;20035;-21
2021/03/27 04:39:18;;;;;;;217.75;92.40;;;;;;;1.39;61.83;101180.38;5090376;28;20508;-22
2021/03/27 04:42:09;;;;;;;56.90;31.52;;;;;;;1.38;61.83;101188.38;5090352;28;20032;-22
2021/03/27 04:45:15;;;;;;;45.72;24.13;;;;;;;1.46;59.25;101183.31;5090407;28;20457;-22
2021/03/27 04:47:45;;;;;;;26.95;13.25;;;;;;;1.42;59.16;101167.94;5058618;28;20044;-22
2021/03/27 04:50:26;;;;;;;24.75;12.30;;;;;;;1.53;59.40;101197.59;5090010;28;20024;-23
2021/03/27 04:53:10;;;;;;;19.00;11.13;;;;;;;1.60;58.97;101203.97;5090377;28;20028;-22
2021/03/27 04:55:42;;;;;;;21.88;11.95;;;;;;;1.50;60.38;101207.53;5089997;28;20043;-22
2021/03/27 04:58:28;;;;;;;23.65;12.63;;;;;;;1.71;60.07;101199.59;5091390;28;20059;-22
2021/03/27 05:01:17;;;;;;;22.33;11.65;;;;;;;1.83;58.61;101203.78;5089834;28;20027;-22
2021/03/27 05:03:51;;;;;;;22.48;13.20;;;;;;;1.95;59.48;101218.47;5089603;28;20139;-22
2021/03/27 05:06:20;;;;;;;28.60;18.00;;;;;;;1.74;59.77;101202.78;5091320;28;20033;-23
2021/03/27 05:08:59;;;;;;;34.75;19.38;;;;;;;1.52;60.71;101211.69;5090913;28;20024;-22
2021/03/27 05:11:50;;;;;;;39.30;21.13;;;;;;;1.50;60.43;101182.06;5090820;28;20036;-22
2021/03/27 05:14:35;;;;;;;78.93;32.50;;;;;;;1.48;61.61;101210.28;5089732;28;20040;-27
2021/03/27 05:17:23;;;;;;;51.40;25.42;;;;;;;1.54;61.49;101194.00;5090829;28;20028;-22
2021/03/27 05:20:02;;;;;;;28.17;18.35;;;;;;;2.12;60.36;101210.91;5089707;28;20036;-22
2021/03/27 05:22:46;;;;;;;27.52;15.32;;;;;;;2.19;61.05;101220.75;5090788;28;20028;-22
2021/03/27 05:25:39;;;;;;;42.47;23.58;;;;;;;1.89;62.19;101223.47;5090474;28;20122;-21
2021/03/27 05:28:35;;;;;;;41.35;26.70;;;;;;;2.41;60.20;101219.69;5089610;28;20024;-22
2021/03/27 05:31:34;;;;;;;34.13;20.85;;;;;;;2.53;60.20;101228.25;5089425;28;20063;-22
2021/03/27 05:34:12;;;;;;;44.38;28.42;;;;;;;2.30;61.33;101232.97;5090640;28;20142;-22
2021/03/27 05:36:45;;;;;;;52.00;30.20;;;;;;;1.96;62.31;101235.94;5089375;28;20036;-22
2021/03/27 05:39:26;;;;;;;37.80;22.35;;;;;;;2.07;62.83;101244.69;5088855;28;20028;-21
2021/03/27 05:42:07;;;;;;;31.55;18.15;;;;;;;2.20;62.48;101232.13;5089029;28;20020;-22
2021/03/27 05:44:47;;;;;;;25.33;16.23;;;;;;;2.13;63.76;101239.72;5090052;28;20032;-23
2021/03/27 05:47:31;;;;;;;25.52;15.50;;;;;;;2.46;62.70;101244.78;5089994;28;20031;-22
2021/03/27 05:50:16;;;;;;;22.58;14.20;;;;;;;2.81;61.76;101241.59;5088922;28;20457;-22
2021/03/27 05:53:02;;;;;;;40.80;20.50;;;;;;;2.96;61.09;101242.00;5090035;28;20056;-23
2021/03/27 05:56:03;;;;;;;25.48;14.65;;;;;;;3.18;60.07;101249.59;5088751;28;20414;-23
2021/03/27 05:58:35;;;;;;;24.33;13.00;;;;;;;3.22;60.87;101250.97;5055685;28;20412;-23
2021/03/27 06:01:39;;;;;;;19.63;12.70;;;;;;;3.36;59.92;101246.25;5088557;28;20067;-22
2021/03/27 06:04:16;;;;;;;22.17;13.90;;;;;;;3.42;60.68;101245.66;5053357;28;20436;-22
2021/03/27 06:07:20;;;;;;;20.67;12.88;;;;;;;3.50;60.43;101242.31;5069721;28;20054;-23
2021/03/27 06:10:10;;;;;;;31.92;14.82;;;;;;;3.67;60.17;101248.63;5068911;28;20044;-22
2021/03/27 06:13:16;;;;;;;26.83;16.27;;;;;;;3.99;58.91;101233.22;5068324;28;20032;-22
2021/03/27 06:15:45;;;;;;;27.48;15.43;;;;;;;4.32;57.22;101245.97;5068333;28;20029;-22
2021/03/27 06:18:24;;;;;;;32.13;20.38;;;;;;;4.34;58.01;101234.25;5069663;28;20485;-22
2021/03/27 06:21:24;;;;;;;20.27;12.48;;;;;;;4.37;57.09;101228.69;5068255;28;20032;-22
2021/03/27 06:24:26;;;;;;;17.83;11.55;;;;;;;4.52;55.89;101249.31;5054134;28;20029;-22
2021/03/27 06:26:59;;;;;;;17.92;11.15;;;;;;;4.67;56.92;101246.97;5068410;28;20050;-22
2021/03/27 06:30:02;;;;;;;19.42;12.23;;;;;;;4.85;57.35;101250.44;5067840;28;20060;-22
2021/03/27 06:32:40;;;;;;;239.80;89.88;;;;;;;5.23;56.35;101246.59;5069504;28;20491;-22
2021/03/27 06:35:27;;;;;;;32.17;18.42;;;;;;;5.41;56.09;101253.63;5068037;28;20046;-22
2021/03/27 06:38:14;;;;;;;23.92;14.90;;;;;;;5.63;55.31;101258.41;5069225;28;20029;-22
2021/03/27 06:41:15;;;;;;;26.35;14.40;;;;;;;5.56;56.00;101259.22;5068938;28;20020;-22
2021/03/27 06:43:47;;;;;;;19.65;12.35;;;;;;;5.06;56.50;101258.03;5044842;28;20045;-22
2021/03/27 06:46:25;;;;;;;20.20;12.02;;;;;;;5.21;56.01;101255.66;5067783;28;20028;-22
2021/03/27 06:49:02;;;;;;;21.38;12.60;;;;;;;5.74;56.94;101257.31;5068933;28;20032;-22
2021/03/27 06:51:33;;;;;;;22.63;13.63;;;;;;;5.86;56.08;101260.50;5068820;28;20024;-22
2021/03/27 06:54:36;;;;;;;20.80;11.68;;;;;;;5.86;56.94;101259.69;5068913;28;20125;-22
2021/03/27 06:57:35;;;;;;;20.90;13.05;;;;;;;6.07;55.84;101264.59;5067577;28;20121;-22
2021/03/27 07:00:00;;;;;;;;;;;;;;;6.55;54.67;101260.44;5069332;28;20028;-22
2021/03/27 07:02:35;;;;;;;25.10;19.60;;;;;;;6.51;55.00;101248.50;5073068;28;19928;-22
2021/03/27 07:05:34;;;;;;;20.05;12.07;;;;;;;6.58;52.95;101270.72;5091652;28;20028;-22
2021/03/27 07:08:13;;;;;;;26.40;15.60;;;;;;;6.91;52.93;101254.84;5109347;28;20114;-22
2021/03/27 07:11:15;;;;;;;28.23;14.88;;;;;;;7.14;53.62;101277.03;5091492;28;20140;-21
2021/03/27 07:14:04;;;;;;;23.00;14.80;;;;;;;7.43;54.14;101270.38;5109277;28;20501;-22
2021/03/27 07:17:03;;;;;;;21.77;13.68;;;;;;;7.50;52.26;101276.69;5062450;28;20063;-22
2021/03/27 07:19:35;;;;;;;19.48;11.65;;;;;;;7.11;51.84;101271.22;5108900;28;20023;-22
2021/03/27 07:22:26;;;;;;;26.45;15.57;;;;;;;7.60;52.45;101277.31;5109193;28;20023;-22
2021/03/27 07:25:29;;;;;;;20.48;12.68;;;;;;;7.76;50.15;101278.25;5109357;28;20557;-23
2021/03/27 07:28:12;;;;;;;18.67;11.60;;;;;;;7.92;50.32;101277.38;5109025;28;20395;-23
2021/03/27 07:31:05;;;;;;;17.83;11.07;;;;;;;8.01;49.50;101279.84;5109096;28;20038;-22
2021/03/27 07:33:40;;;;;;;15.80;10.00;;;;;;;7.94;48.25;101268.25;5108932;28;20070;-22
2021/03/27 07:36:17;;;;;;;20.88;13.07;;;;;;;8.38;49.73;101261.56;5109076;28;20039;-22
2021/03/27 07:39:18;;;;;;;136.73;57.35;;;;;;;8.68;48.52;101262.56;5109038;28;20072;-22
2021/03/27 07:42:20;;;;;;;14.40;10.55;;;;;;;8.47;47.55;101284.47;5090919;28;20019;-22
2021/03/27 07:45:05;;;;;;;20.20;11.00;;;;;;;8.77;49.24;101285.44;5090620;28;20522;-22
2021/03/27 07:48:07;;;;;;;15.75;10.68;;;;;;;8.96;48.21;101256.72;5090403;28;20058;-22
2021/03/27 07:50:42;;;;;;;16.02;11.30;;;;;;;9.47;47.16;101283.53;5109094;28;20498;-22
2021/03/27 07:53:32;;;;;;;18.10;11.90;;;;;;;9.70;47.23;101286.13;5090744;28;20032;-23
2021/03/27 07:56:19;;;;;;;18.50;10.77;;;;;;;9.64;44.87;101271.72;5111844;28;20028;-22
2021/03/27 07:58:56;;;;;;;18.15;11.75;;;;;;;9.81;46.70;101282.19;5112733;28;20066;-23
2021/03/27 08:01:53;;;;;;;18.17;11.98;;;;;;;10.05;45.16;101279.25;5091266;28;20475;-22
2021/03/27 08:04:21;;;;;;;18.45;12.05;;;;;;;10.09;45.25;101290.31;5095472;28;20051;-22
2021/03/27 08:06:51;;;;;;;;;;;;;;;10.36;43.61;101280.88;5101880;28;20495;-23
2021/03/27 08:09:41;;;;;;;19.08;11.95;;;;;;;10.43;45.97;101283.59;5081392;28;19919;-22
2021/03/27 08:12:32;;;;;;;18.80;12.13;;;;;;;10.62;43.71;101274.16;5112423;28;20027;-22
2021/03/27 08:15:05;;;;;;;19.23;11.88;;;;;;;10.89;41.96;101279.75;5050238;28;20411;-22
2021/03/27 08:17:38;;;;;;;16.77;11.52;;;;;;;10.84;42.42;101273.16;5091740;28;20866;-23
2021/03/27 08:20:41;;;;;;;18.17;11.40;;;;;;;11.24;42.65;101267.34;5092365;28;20055;-22
2021/03/27 08:23:15;;;;;;;18.58;10.95;;;;;;;11.52;40.34;101269.97;5112211;28;20123;-22
2021/03/27 08:25:47;;;;;;;19.55;12.52;;;;;;;11.84;40.94;101252.50;5112132;28;20127;-22
2021/03/27 08:28:16;;;;;;;15.45;10.95;;;;;;;11.95;40.79;101274.38;5094231;28;20493;-22
2021/03/27 08:30:44;;;;;;;;;;;;;;;12.10;41.51;101271.59;5112741;28;20114;-22
2021/03/27 08:33:18;;;;;;;16.73;10.65;;;;;;;12.30;39.39;101267.13;5111942;28;19912;-22
2021/03/27 08:35:53;;;;;;;19.13;11.43;;;;;;;12.33;38.58;101271.25;5112086;28;20031;-22
2021/03/27 08:38:37;;;;;;;15.23;9.65;;;;;;;12.28;38.85;101269.19;5111639;28;20040;-22
2021/03/27 08:41:17;;;;;;;13.75;9.38;;;;;;;12.53;36.96;101271.31;5111617;28;20107;-22
2021/03/27 08:44:09;;;;;;;15.70;9.77;;;;;;;12.69;37.84;101268.25;5111559;28;20497;-21
2021/03/27 08:47:03;;;;;;;14.80;9.45;;;;;;;12.91;37.72;101262.72;5095460;28;20035;-22
2021/03/27 08:50:02;;;;;;;17.90;9.60;;;;;;;13.03;37.69;101261.06;5111737;28;20031;-22
2021/03/27 08:53:02;;;;;;;13.20;7.75;;;;;;;12.64;38.11;101268.03;5111981;28;20114;-22
2021/03/27 08:56:00;;;;;;;12.02;8.20;;;;;;;12.60;37.54;101240.84;5110669;28;20028;-22
2021/03/27 08:59:04;;;;;;;15.73;9.27;;;;;;;12.76;38.42;101261.06;5096191;28;20030;-22
2021/03/27 09:01:58;;;;;;;14.63;10.18;;;;;;;13.42;38.31;101252.25;5079629;28;20104;-22
2021/03/27 09:04:51;;;;;;;13.77;9.20;;;;;;;13.80;35.98;101250.69;5111379;28;20114;-21
2021/03/27 09:07:44;;;;;;;10.55;8.38;;;;;;;13.47;35.71;101238.22;5110780;28;20030;-22
2021/03/27 09:10:21;;;;;;;12.95;8.45;;;;;;;13.51;37.28;101246.66;5111342;28;20088;-22
2021/03/27 09:12:50;;;;;;;14.15;8.88;;;;;;;14.04;35.40;101233.09;5111273;28;20046;-22
2021/03/27 09:15:31;;;;;;;13.65;8.05;;;;;;;14.27;35.86;101235.22;5093033;28;20491;-21
2021/03/27 09:18:13;;;;;;;12.00;8.25;;;;;;;14.46;34.70;101234.31;5092957;28;20027;-22
2021/03/27 09:20:41;;;;;;;12.52;8.52;;;;;;;14.25;33.37;101232.75;5111267;28;20039;-22
2021/03/27 09:23:12;;;;;;;;;;;;;;;14.38;35.37;101226.47;5111500;28;20038;-22
2021/03/27 09:26:15;;;;;;;10.77;7.50;;;;;;;14.81;36.09;101225.00;5110998;28;20367;-22
2021/03/27 09:28:49;;;;;;;11.10;7.50;;;;;;;14.72;33.88;101219.06;5110900;28;20110;-22
2021/03/27 09:31:23;;;;;;;10.93;7.32;;;;;;;14.38;32.40;101218.44;5092576;28;20027;-22
2021/03/27 09:33:53;;;;;;;11.43;7.57;;;;;;;14.54;34.62;101213.59;5110967;28;20031;-22
2021/03/27 09:36:31;;;;;;;12.52;7.63;;;;;;;14.99;34.42;101210.81;5092788;28;20108;-22
2021/03/27 09:39:26;;;;;;;11.65;8.20;;;;;;;15.30;32.62;101206.38;5077057;28;20110;-22
2021/03/27 09:41:57;;;;;;;12.20;8.63;;;;;;;15.65;32.05;101183.25;5092428;28;20196;-22
2021/03/27 09:44:56;;;;;;;20.08;8.50;;;;;;;15.94;31.01;101202.38;5110278;28;20036;-22
2021/03/27 09:47:46;;;;;;;12.10;7.53;;;;;;;16.14;32.27;101201.28;5110251;28;20042;-22
2021/03/27 09:50:24;;;;;;;14.45;7.57;;;;;;;15.96;31.00;101194.91;5094650;28;20024;-22
2021/03/27 09:53:26;;;;;;;10.68;7.28;;;;;;;16.05;31.19;101192.72;5110509;28;20031;-22
2021/03/27 09:56:32;;;;;;;10.93;7.43;;;;;;;16.07;31.22;101169.91;5110470;28;20047;-21
2021/03/27 09:59:17;;;;;;;12.30;7.38;;;;;;;16.05;29.46;101184.63;5110508;28;20110;-22
2021/03/27 10:01:42;;;;;;;11.50;7.35;;;;;;;16.19;32.79;101182.59;5110035;28;20112;-22
2021/03/27 10:04:26;;;;;;;11.50;7.45;;;;;;;15.64;29.22;101183.47;5109795;28;20559;-22
2021/03/27 10:07:14;;;;;;;12.25;7.35;;;;;;;15.67;30.98;101177.63;5109542;28;20020;-23
2021/03/27 10:10:01;;;;;;;10.50;7.32;;;;;;;16.69;31.00;101171.47;5098616;28;20609;-21
2021/03/27 10:12:36;;;;;;;12.48;7.50;;;;;;;17.27;28.70;101172.56;5095159;28;20024;-22
2021/03/27 10:15:08;;;;;;;11.25;7.32;;;;;;;17.50;29.48;101162.81;5089390;28;20098;-23
2021/03/27 10:17:40;;;;;;;11.93;7.03;;;;;;;17.36;27.24;101159.53;5108829;28;20479;-22
2021/03/27 10:20:33;;;;;;;11.27;7.70;;;;;;;17.58;27.40;101157.84;5075235;28;20024;-22
2021/03/27 10:23:14;;;;;;;12.02;7.70;;;;;;;17.67;27.64;101156.44;5092164;28;20027;-22
2021/03/27 10:25:42;;;;;;;11.55;7.70;;;;;;;16.57;27.66;101146.38;5109680;28;20069;-22
2021/03/27 10:28:20;;;;;;;13.07;7.30;;;;;;;17.37;27.19;101147.72;5095247;28;20035;-22
2021/03/27 10:30:55;;;;;;;12.40;7.55;;;;;;;17.14;28.42;101130.53;5071757;28;20047;-23
2021/03/27 10:33:24;;;;;;;10.32;7.05;;;;;;;17.04;26.54;101120.31;5071456;28;20472;-22
2021/03/27 10:35:53;;;;;;;12.15;7.25;;;;;;;16.79;26.25;101125.91;5071777;28;20035;-23
2021/03/27 10:38:22;;;;;;;11.52;7.55;;;;;;;17.56;26.71;101143.78;5054762;28;20101;-22
2021/03/27 10:40:49;;;;;;;12.30;7.68;;;;;;;17.76;26.73;101142.56;5089136;28;20024;-22
2021/03/27 10:43:30;;;;;;;578.63;345.70;;;;;;;18.14;25.39;101141.09;5071094;28;20031;-22
2021/03/27 10:46:08;;;;;;;13.15;8.18;;;;;;;18.14;25.32;101141.09;5089334;28;20032;-23
2021/03/27 10:48:48;;;;;;;13.27;7.40;;;;;;;18.16;26.85;101141.69;5071113;28;20479;-22
2021/03/27 10:51:20;;;;;;;12.10;7.10;;;;;;;18.34;25.48;101143.34;5091231;28;20036;-23
2021/03/27 10:54:04;;;;;;;9.40;6.90;;;;;;;18.64;25.13;101138.44;5107096;28;20399;-23
2021/03/27 10:56:36;;;;;;;10.95;7.57;;;;;;;19.07;24.27;101136.94;5088988;28;20461;-22
2021/03/27 10:59:20;;;;;;;14.00;8.68;;;;;;;19.27;30.40;101131.00;5082140;28;20028;-23
2021/03/27 11:02:13;;;;;;;17.83;9.50;;;;;;;20.24;27.34;101135.84;5094084;28;20506;-22
2021/03/27 11:05:03;;;;;;;13.20;7.82;;;;;;;20.96;30.30;101139.13;5105923;28;20044;-22
2021/03/27 11:07:37;;;;;;;22.88;15.38;;;;;;;21.22;25.83;101140.91;5108970;28;20043;-22
2021/03/27 11:10:33;;;;;;;16.42;11.43;;;;;;;22.35;26.80;101138.56;5069766;28;20036;-22
2021/03/27 11:13:41;;;;;;;11.30;7.80;;;;;;;21.85;29.22;101102.06;5087590;28;20039;-22
2021/03/27 11:16:27;;;;;;;11.82;7.53;;;;;;;22.45;25.47;101122.25;5072588;28;20418;-22
2021/03/27 11:19:10;;;;;;;11.45;7.38;;;;;;;22.13;27.12;101118.91;5070608;28;20169;-22
2021/03/27 11:22:01;;;;;;;24.05;18.33;;;;;;;22.18;23.64;101108.88;5070517;28;20085;-22
2021/03/27 11:24:56;;;;;;;13.50;8.65;;;;;;;21.21;23.73;101109.44;5073022;28;20883;-23
2021/03/27 11:27:40;;;;;;;10.15;7.63;;;;;;;21.02;26.15;101114.50;5056892;28;20036;-22
2021/03/27 11:30:25;;;;;;;10.88;7.40;;;;;;;20.82;26.99;101112.50;5092113;28;20048;-22
2021/03/27 11:32:57;;;;;;;9.88;6.78;;;;;;;20.22;25.34;101102.78;5075660;28;20056;-22
2021/03/27 11:35:36;;;;;;;36.95;21.15;;;;;;;20.68;25.35;101086.94;5074311;28;20063;-22
2021/03/27 11:38:22;;;;;;;13.68;8.85;;;;;;;21.24;24.23;101089.91;5075037;28;20036;-22
2021/03/27 11:41:07;;;;;;;11.82;7.22;;;;;;;20.86;24.28;101100.03;5095974;28;20887;-22
2021/03/27 11:43:59;;;;;;;16.77;8.98;;;;;;;21.65;25.28;101092.78;5103651;28;20073;-22
2021/03/27 11:46:28;;;;;;;11.27;7.60;;;;;;;21.79;26.36;101084.13;5073922;28;20636;-23
2021/03/27 11:49:25;;;;;;;11.90;7.22;;;;;;;22.15;22.18;101089.59;5084501;28;20027;-22
2021/03/27 11:51:55;;;;;;;13.73;8.88;;;;;;;21.71;22.57;101074.63;5059907;28;20042;-22
2021/03/27 11:54:25;;;;;;;10.02;6.93;;;;;;;21.17;22.94;101081.22;5057482;28;20140;-22
2021/03/27 11:57:02;;;;;;;11.85;7.03;;;;;;;20.97;24.35;101083.84;5079521;28;20040;-22
2021/03/27 12:00:47;;;;;;;10.23;6.18;;;;;;;21.22;25.26;101085.84;5102448;28;20024;-22
2021/03/27 12:02:35;;;;;;;10.05;6.30;;;;;;;21.01;22.45;101077.63;5099689;28;20447;-22
2021/03/27 12:05:07;;;;;;;13.35;6.72;;;;;;;19.97;24.38;101079.84;5073799;28;20468;-23
2021/03/27 12:08:03;;;;;;;12.00;6.45;;;;;;;20.95;27.61;101072.44;5092349;28;20031;-22
2021/03/27 12:10:44;;;;;;;9.32;6.15;;;;;;;21.10;23.83;101068.97;5092219;28;20031;-22
2021/03/27 12:13:42;;;;;;;9.35;6.43;;;;;;;21.11;23.14;101066.00;5073895;28;20524;-22
2021/03/27 12:16:25;;;;;;;11.32;7.30;;;;;;;21.76;23.14;101071.91;5103683;28;20028;-22
2021/03/27 12:19:02;;;;;;;29.23;17.40;;;;;;;21.76;22.18;101054.78;5094168;28;20122;-22
2021/03/27 12:21:40;;;;;;;10.68;6.30;;;;;;;21.49;24.16;101066.69;5093600;28;20031;-22
2021/03/27 12:24:27;;;;;;;9.73;6.50;;;;;;;21.83;21.18;101055.34;5112318;28;20036;-22
2021/03/27 12:27:14;;;;;;;11.07;7.15;;;;;;;22.03;23.35;101043.69;5112245;28;20030;-22